cloudbaseCU.php : Version 1.5 - copyright 2013 Silver Acorn Limited
Date/Time : Sun, 17 Feb 2019 23:35:59 (Night)
Time Zone : Europe/London (GMT+0 hours)
INPUT ITEM: RAW DATA -> DERIVED
    Current temp : 8.4 -> 8.4 °C
    Dewpoint : 4.8 -> 4.8 °C
    Rain Fall : 2.4 -> 2.4 mm
    Barometer : 1003.1 -> 1003 hPa
    Humidity : 35 -> 35 %
    Wind Speed : 1.8 -> 1.8 mph
    Wind Dir : 168.0 -> 168.0 degrees
    Cloud Altitude : 1440 -> 1440 ft (AGL)
    Latitude : 54 -> N = Northern Hemisphere
    Season : -> Winter
    Moon Age : 12 -> 12 days
    Is daylight : 0 -> Night
    Realtime file Interval : 15 -> 15 Seconds
    Tag file time Interval : 5 -> 5 Minutes
CUMULUS CONDITIONS
    Cumulus conditions not in use
    Zambretti # : 0 -> 0
METAR CONDITONS - Metar Times UNC, Update Station times based on timezone setting
    $pathToMetFile : ./cache/
    Metar - Rawdata : 2019/02/17 23:20 EGAC 172320Z AUTO 19018KT 9999 BKN035/// 09/04 Q1002
    Metar - Trimmed : 172320Z AUTO 19018KT 9999 BKN035 09/04 Q1002
    Metar - Decoded : Not Raining; Mostly cloudy
    Now : 1550446559 seconds or Station Time of 23:35:59
    Metar report timestamp : 1550445600 seconds
    Age of File : 15.98 minutes
    When to update Metar : 1550447940 seconds (When station time ~ 23:59:00)
        (Metar report timestamp plus 39 mins refresh time)
    Next Download in : 23.02 Minutes (if  '-' then refresh page, if still '-' then download overdue!)
    Metar file : Existing file re-used
    Note:- Metar updates are usually Hourly unless AUTO when they may update every 30 minutes
OUTPUT DATA

    $showAGLASL : true
Cloud Temp : 1 °C
Background image file name : ./images/cb/cb-bg-00winn.png
    $useWXrain : true
    $tagint : 5
    Last rain : 50 minutes ago
    $wxrain : false
"useWXrain" results :-
    No rain in last 5 minutes -> Not raining
SETTINGS
    $realtime : cloudbase.txt
    $metarICAO : EGAC
    $pathToMetFile : ./cache/
    $tz : Europe/London - The setting in this script, may be overidden by the Saratoga SITE setting
    $pathToImages : ./images/cb/
    $pathToMoonImages : ./images/cb/moon/
    $translate : true
    $switchSeasons : true
    $showCldSource : true
    $showCloudTemp : true
    $showCaption : true
    $showMoon : true
    $showScale : true
    $showWinsock : false
    $showWindDir : false
    $showWindSpd : false
    $showTemp : false
    $showHumidity : false
    $showBaro : false
    $alwaysShowCloud : false
    $useCUHeight : false
    $getMetar : true
    $metarRefresh : true
    $useMetarAtNight : true
    $onlyUseMetar : true
    $reportMistAt : 25 ft
    $stationAltitude : 0 ft